createdAt,value
2023-02-05T00:00:27.912Z,6.70
2023-02-05T00:02:54.779Z,6.70
2023-02-05T00:05:21.580Z,6.70
2023-02-05T00:07:48.268Z,6.70
2023-02-05T00:10:15.354Z,6.60
2023-02-05T00:12:42.011Z,6.60
2023-02-05T00:15:09.257Z,6.60
2023-02-05T00:17:36.981Z,6.60
2023-02-05T00:20:05.113Z,6.60
2023-02-05T00:22:32.001Z,6.60
2023-02-05T00:24:58.771Z,6.60
2023-02-05T00:27:27.994Z,6.50
2023-02-05T00:29:56.046Z,6.60
2023-02-05T00:32:22.750Z,6.60
2023-02-05T00:35:01.555Z,6.60
2023-02-05T00:37:31.918Z,6.60
2023-02-05T00:39:58.715Z,6.60
2023-02-05T00:42:37.778Z,6.60
2023-02-05T00:45:04.739Z,6.60
2023-02-05T00:47:31.524Z,6.60
2023-02-05T00:49:58.704Z,6.60
2023-02-05T00:52:25.600Z,6.60
2023-02-05T00:54:53.503Z,6.60
2023-02-05T00:57:24.591Z,6.70
2023-02-05T00:59:54.414Z,6.70
2023-02-05T01:02:23.794Z,6.70
2023-02-05T01:04:51.285Z,6.70
2023-02-05T01:07:20.502Z,6.70
2023-02-05T01:09:48.616Z,6.70
2023-02-05T01:12:15.386Z,6.60
2023-02-05T01:14:42.704Z,6.60
2023-02-05T01:17:09.520Z,6.60
2023-02-05T01:19:36.648Z,6.60
2023-02-05T01:22:04.242Z,6.60
2023-02-05T01:24:31.088Z,6.60
2023-02-05T01:26:58.674Z,6.70
2023-02-05T01:29:29.288Z,6.70
2023-02-05T01:31:56.491Z,6.70
2023-02-05T01:34:23.359Z,6.70
2023-02-05T01:36:50.238Z,6.70
2023-02-05T01:39:16.909Z,6.70
2023-02-05T01:41:45.442Z,6.80
2023-02-05T01:44:13.210Z,6.80
2023-02-05T01:46:50.899Z,6.80
2023-02-05T01:49:41.502Z,6.70
2023-02-05T01:52:13.854Z,6.70
2023-02-05T01:54:42.932Z,6.70
2023-02-05T01:57:11.297Z,6.70
2023-02-05T01:59:39.208Z,6.60
2023-02-05T02:02:07.126Z,6.60
2023-02-05T02:04:42.940Z,6.60
2023-02-05T02:07:14.721Z,6.60
2023-02-05T02:09:42.014Z,6.60
2023-02-05T02:12:12.765Z,6.50
2023-02-05T02:14:40.054Z,6.50
2023-02-05T02:17:06.948Z,6.50
2023-02-05T02:19:40.968Z,6.50
2023-02-05T02:22:32.910Z,6.50
2023-02-05T02:25:12.041Z,6.50
2023-02-05T02:27:40.916Z,6.50
2023-02-05T02:30:24.134Z,6.50
2023-02-05T02:33:04.694Z,6.40
2023-02-05T02:35:47.971Z,6.40
2023-02-05T02:38:20.901Z,6.30
2023-02-05T02:40:52.302Z,6.40
2023-02-05T02:43:25.067Z,6.50
2023-02-05T02:45:59.922Z,6.40
2023-02-05T02:48:26.916Z,6.40
2023-02-05T02:50:53.931Z,6.40
2023-02-05T02:53:25.370Z,6.40
2023-02-05T02:55:52.523Z,6.40
2023-02-05T02:58:29.170Z,6.40
2023-02-05T03:00:56.035Z,6.40
2023-02-05T03:03:24.137Z,6.40
2023-02-05T03:05:51.005Z,6.40
2023-02-05T03:08:23.725Z,6.40
2023-02-05T03:11:14.234Z,6.40
2023-02-05T03:13:43.122Z,6.30
2023-02-05T03:16:10.317Z,6.30
2023-02-05T03:18:37.477Z,6.30
2023-02-05T03:21:07.799Z,6.40
2023-02-05T03:23:34.473Z,6.40
2023-02-05T03:26:01.227Z,6.40
2023-02-05T03:28:37.746Z,6.40
2023-02-05T03:31:16.447Z,6.40
2023-02-05T03:33:59.979Z,6.40
2023-02-05T03:36:40.435Z,6.40
2023-02-05T03:39:12.758Z,6.40
2023-02-05T03:41:57.966Z,6.40
2023-02-05T03:44:43.505Z,6.40
2023-02-05T03:47:33.650Z,6.40
2023-02-05T03:50:14.043Z,6.40
2023-02-05T03:52:45.424Z,6.40
2023-02-05T03:55:19.768Z,6.50
2023-02-05T03:58:12.982Z,6.50
2023-02-05T04:00:40.083Z,6.50
2023-02-05T04:03:06.977Z,6.50
2023-02-05T04:05:36.064Z,6.50
2023-02-05T04:08:04.640Z,6.40
2023-02-05T04:10:37.722Z,6.40
2023-02-05T04:13:04.405Z,6.40
2023-02-05T04:15:33.235Z,6.40
2023-02-05T04:18:02.037Z,6.40
2023-02-05T04:20:30.335Z,6.40
2023-02-05T04:22:57.964Z,6.50
2023-02-05T04:25:26.101Z,6.50
2023-02-05T04:27:54.662Z,6.50
2023-02-05T04:30:21.562Z,6.50
2023-02-05T04:32:48.663Z,6.50
2023-02-05T04:35:17.192Z,6.60
2023-02-05T04:37:44.947Z,6.50
2023-02-05T04:40:12.218Z,6.50
2023-02-05T04:42:38.962Z,6.50
2023-02-05T04:45:05.887Z,6.50
2023-02-05T04:47:32.844Z,6.50
2023-02-05T04:49:59.639Z,6.40
2023-02-05T04:52:26.396Z,6.50
2023-02-05T04:54:53.063Z,6.50
2023-02-05T04:57:19.767Z,6.50
2023-02-05T04:59:46.431Z,6.50
2023-02-05T05:02:13.179Z,6.40
2023-02-05T05:04:42.058Z,6.40
2023-02-05T05:07:10.970Z,6.40
2023-02-05T05:09:37.798Z,6.40
2023-02-05T05:12:04.691Z,6.40
2023-02-05T05:14:31.369Z,6.40
2023-02-05T05:16:58.069Z,6.40
2023-02-05T05:19:24.754Z,6.40
2023-02-05T05:21:51.541Z,6.40
2023-02-05T05:24:18.298Z,6.30
2023-02-05T05:26:46.203Z,6.40
2023-02-05T05:29:12.970Z,6.30
2023-02-05T05:31:40.046Z,6.30
2023-02-05T05:34:07.055Z,6.30
2023-02-05T05:36:33.825Z,6.40
2023-02-05T05:39:20.520Z,6.40
2023-02-05T05:42:06.045Z,6.40
2023-02-05T05:44:32.750Z,6.40
2023-02-05T05:46:59.415Z,6.40
2023-02-05T05:49:26.228Z,6.40
2023-02-05T05:51:52.955Z,6.40
2023-02-05T05:54:19.669Z,6.30
2023-02-05T05:56:46.408Z,6.30
2023-02-05T05:59:13.199Z,6.30
2023-02-05T06:01:39.872Z,6.30
2023-02-05T06:04:06.801Z,6.30
2023-02-05T06:06:33.699Z,6.30
2023-02-05T06:09:00.341Z,6.30
2023-02-05T06:11:27.132Z,6.30
2023-02-05T06:13:53.802Z,6.30
2023-02-05T06:16:20.545Z,6.30
2023-02-05T06:18:47.248Z,6.30
2023-02-05T06:21:16.831Z,6.30
2023-02-05T06:23:43.810Z,6.30
2023-02-05T06:26:10.565Z,6.30
2023-02-05T06:28:37.242Z,6.30
2023-02-05T06:31:04.124Z,6.30
2023-02-05T06:33:30.870Z,6.30
2023-02-05T06:35:57.603Z,6.20
2023-02-05T06:38:24.357Z,6.30
2023-02-05T06:40:51.043Z,6.30
2023-02-05T06:43:17.704Z,6.30
2023-02-05T06:45:44.408Z,6.30
2023-02-05T06:48:11.122Z,6.30
2023-02-05T06:50:39.479Z,6.30
2023-02-05T06:53:06.207Z,6.30
2023-02-05T06:55:33.273Z,6.30
2023-02-05T06:58:00.162Z,6.20
2023-02-05T07:00:26.991Z,6.30
2023-02-05T07:02:55.094Z,6.20
2023-02-05T07:05:21.908Z,6.30
2023-02-05T07:07:49.911Z,6.30
2023-02-05T07:10:16.797Z,6.20
2023-02-05T07:12:43.842Z,6.20
2023-02-05T07:15:10.571Z,6.20
2023-02-05T07:17:38.457Z,6.20
2023-02-05T07:20:05.818Z,6.20
2023-02-05T07:22:32.494Z,6.20
2023-02-05T07:24:59.178Z,6.10
2023-02-05T07:27:25.837Z,6.10
2023-02-05T07:29:52.546Z,6.20
2023-02-05T07:32:19.205Z,6.20
2023-02-05T07:34:45.868Z,6.10
2023-02-05T07:37:15.794Z,6.10
2023-02-05T07:39:42.704Z,6.20
2023-02-05T07:42:09.449Z,6.20
2023-02-05T07:44:43.466Z,6.20
2023-02-05T07:47:10.392Z,6.20
2023-02-05T07:49:37.316Z,6.20
2023-02-05T07:52:04.248Z,6.20
2023-02-05T07:54:30.954Z,6.30
2023-02-05T07:56:59.966Z,6.20
2023-02-05T07:59:26.762Z,6.10
2023-02-05T08:01:53.458Z,6.10
2023-02-05T08:04:20.158Z,6.10
2023-02-05T08:06:46.969Z,6.10
2023-02-05T08:09:14.361Z,6.10
2023-02-05T08:11:41.055Z,6.10
2023-02-05T08:14:07.905Z,6.20
2023-02-05T08:16:34.796Z,6.20
2023-02-05T08:19:01.501Z,6.30
2023-02-05T08:21:28.248Z,6.30
2023-02-05T08:23:57.175Z,6.30
2023-02-05T08:26:23.925Z,6.30
2023-02-05T08:28:50.601Z,6.40
2023-02-05T08:31:18.406Z,6.50
2023-02-05T08:33:47.646Z,6.50
2023-02-05T08:36:14.496Z,6.50
2023-02-05T08:38:41.242Z,6.60
2023-02-05T08:41:12.659Z,6.60
2023-02-05T08:43:41.031Z,6.60
2023-02-05T08:46:08.890Z,6.70
2023-02-05T08:48:35.730Z,6.70
2023-02-05T08:51:02.632Z,6.60
2023-02-05T08:53:30.539Z,6.70
2023-02-05T08:55:58.172Z,6.60
2023-02-05T08:58:25.281Z,6.70
2023-02-05T09:00:52.121Z,6.70
2023-02-05T09:03:18.929Z,6.60
2023-02-05T09:05:48.277Z,6.60
2023-02-05T09:08:15.017Z,6.60
2023-02-05T09:10:44.492Z,6.60
2023-02-05T09:13:11.231Z,6.60
2023-02-05T09:15:47.219Z,6.60
2023-02-05T09:18:15.764Z,6.60
2023-02-05T09:20:46.643Z,6.70
2023-02-05T09:23:14.134Z,6.60
2023-02-05T09:25:41.373Z,6.60
2023-02-05T09:28:09.529Z,6.60
2023-02-05T09:30:40.846Z,6.60
2023-02-05T09:33:08.634Z,6.60
2023-02-05T09:35:36.123Z,6.60
2023-02-05T09:38:03.310Z,6.70
2023-02-05T09:40:40.038Z,6.70
2023-02-05T09:43:19.396Z,6.70
2023-02-05T09:46:40.340Z,6.70
2023-02-05T09:49:16.903Z,6.70
2023-02-05T09:51:48.176Z,6.80
2023-02-05T09:54:33.026Z,6.80
2023-02-05T09:57:08.175Z,6.80
2023-02-05T09:59:34.842Z,6.80
2023-02-05T10:02:05.809Z,6.80
2023-02-05T10:04:32.731Z,6.80
2023-02-05T10:07:14.698Z,6.80
2023-02-05T10:09:45.167Z,6.90
2023-02-05T10:12:36.343Z,6.90
2023-02-05T10:15:23.414Z,7.00
2023-02-05T10:18:00.827Z,7.00
2023-02-05T10:20:48.879Z,7.00
2023-02-05T10:23:17.516Z,6.90
2023-02-05T10:25:55.282Z,6.90
2023-02-05T10:28:56.164Z,7.00
2023-02-05T10:31:42.673Z,7.10
2023-02-05T10:34:56.839Z,7.10
2023-02-05T10:37:39.374Z,7.20
2023-02-05T10:40:14.422Z,7.20
2023-02-05T10:42:44.599Z,7.20
2023-02-05T10:45:18.112Z,7.30
2023-02-05T10:48:03.496Z,7.40
2023-02-05T10:50:48.962Z,7.30
2023-02-05T10:53:22.558Z,7.20
2023-02-05T10:55:49.480Z,7.20
2023-02-05T10:58:43.974Z,7.10
2023-02-05T11:01:21.660Z,7.10
2023-02-05T11:04:03.481Z,7.20
2023-02-05T11:06:41.027Z,7.20
2023-02-05T11:09:26.338Z,7.40
2023-02-05T11:11:56.982Z,7.30
2023-02-05T11:14:34.348Z,7.20
2023-02-05T11:17:08.856Z,7.20
2023-02-05T11:19:35.738Z,7.10
2023-02-05T11:22:03.875Z,7.10
2023-02-05T11:24:39.330Z,7.10
2023-02-05T11:27:31.730Z,7.10
2023-02-05T11:30:15.661Z,7.10
2023-02-05T11:32:42.501Z,7.30
2023-02-05T11:35:18.316Z,7.30
2023-02-05T11:37:46.304Z,7.40
2023-02-05T11:40:24.427Z,7.40
2023-02-05T11:43:01.072Z,7.30
2023-02-05T11:45:27.970Z,7.30
2023-02-05T11:47:54.753Z,7.30
2023-02-05T11:50:27.163Z,7.40
2023-02-05T11:53:05.144Z,7.40
2023-02-05T11:55:33.045Z,7.40
2023-02-05T11:58:05.325Z,7.40
2023-02-05T12:00:32.556Z,7.60
2023-02-05T12:03:07.652Z,7.70
2023-02-05T12:05:40.707Z,7.60
2023-02-05T12:08:13.685Z,7.40
2023-02-05T12:11:00.971Z,7.50
2023-02-05T12:14:06.685Z,7.40
2023-02-05T12:16:41.577Z,7.20
2023-02-05T12:19:19.683Z,7.30
2023-02-05T12:21:46.421Z,7.30
2023-02-05T12:24:47.478Z,7.30
2023-02-05T12:27:52.724Z,7.40
2023-02-05T12:30:37.662Z,7.40
2023-02-05T12:33:23.760Z,7.50
2023-02-05T12:35:59.514Z,7.50
2023-02-05T12:38:38.328Z,7.50
2023-02-05T12:41:37.988Z,7.50
2023-02-05T12:44:37.690Z,7.60
2023-02-05T12:47:28.759Z,7.80
2023-02-05T12:50:04.054Z,7.70
2023-02-05T12:53:18.600Z,7.70
2023-02-05T12:56:08.584Z,8.20
2023-02-05T12:58:39.691Z,8.40
2023-02-05T13:01:14.342Z,8.50
2023-02-05T13:03:48.037Z,8.30
2023-02-05T13:06:33.224Z,7.90
2023-02-05T13:09:09.323Z,7.70
2023-02-05T13:11:38.854Z,7.60
2023-02-05T13:14:20.550Z,7.40
2023-02-05T13:16:50.133Z,7.20
2023-02-05T13:19:31.872Z,7.20
2023-02-05T13:22:19.571Z,7.30
2023-02-05T13:25:09.359Z,7.60
2023-02-05T13:28:01.171Z,7.70
2023-02-05T13:30:38.211Z,7.70
2023-02-05T13:33:06.632Z,7.60
2023-02-05T13:36:12.152Z,7.60
2023-02-05T13:38:49.701Z,7.60
2023-02-05T13:41:28.345Z,7.50
2023-02-05T13:44:11.557Z,7.50
2023-02-05T13:46:42.139Z,7.60
2023-02-05T13:49:14.730Z,7.60
2023-02-05T13:51:50.433Z,7.60
2023-02-05T13:54:29.200Z,7.60
2023-02-05T13:57:13.576Z,7.60
2023-02-05T13:59:42.032Z,7.60
2023-02-05T14:02:33.803Z,7.40
2023-02-05T14:05:04.897Z,7.30
2023-02-05T14:07:33.264Z,7.30
2023-02-05T14:10:00.950Z,7.20
2023-02-05T14:12:29.389Z,7.10
2023-02-05T14:15:19.960Z,7.10
2023-02-05T14:17:46.663Z,7.00
2023-02-05T14:20:25.737Z,7.00
2023-02-05T14:22:53.705Z,6.90
2023-02-05T14:25:46.569Z,7.00
2023-02-05T14:28:16.166Z,6.90
2023-02-05T14:30:47.582Z,6.90
2023-02-05T14:33:40.163Z,6.90
2023-02-05T14:36:16.774Z,6.90
2023-02-05T14:38:45.203Z,6.90
2023-02-05T14:41:25.627Z,6.90
2023-02-05T14:43:59.860Z,6.80
2023-02-05T14:46:32.717Z,6.90
2023-02-05T14:49:01.093Z,6.80
2023-02-05T14:51:36.401Z,6.80
2023-02-05T14:54:21.239Z,6.80
2023-02-05T14:57:26.024Z,6.80
2023-02-05T15:00:01.543Z,6.80
2023-02-05T15:02:49.911Z,6.80
2023-02-05T15:05:36.848Z,6.70
2023-02-05T15:08:10.013Z,6.80
2023-02-05T15:10:43.875Z,6.80
2023-02-05T15:13:18.319Z,6.80
2023-02-05T15:16:11.175Z,6.80
2023-02-05T15:18:43.818Z,6.70
2023-02-05T15:21:22.314Z,6.70
2023-02-05T15:24:01.313Z,6.70
2023-02-05T15:26:39.715Z,6.80
2023-02-05T15:29:12.596Z,6.70
2023-02-05T15:31:48.358Z,6.70
2023-02-05T15:34:26.041Z,6.60
2023-02-05T15:36:55.100Z,6.60
2023-02-05T15:39:35.469Z,6.60
2023-02-05T15:42:02.464Z,6.60
2023-02-05T15:44:31.113Z,6.60
2023-02-05T15:46:59.255Z,6.60
2023-02-05T15:49:32.702Z,6.60
2023-02-05T15:51:59.631Z,6.60
2023-02-05T15:54:26.326Z,6.60
2023-02-05T15:56:53.038Z,6.60
2023-02-05T15:59:29.615Z,6.60
2023-02-05T16:02:18.756Z,6.60
2023-02-05T16:04:45.486Z,6.50
2023-02-05T16:07:23.356Z,6.50
2023-02-05T16:09:53.663Z,6.60
2023-02-05T16:12:20.691Z,6.50
2023-02-05T16:14:57.654Z,6.50
2023-02-05T16:17:40.654Z,6.50
2023-02-05T16:20:16.875Z,6.50
2023-02-05T16:22:55.297Z,6.50
2023-02-05T16:25:40.181Z,6.50
2023-02-05T16:28:17.943Z,6.50
2023-02-05T16:30:44.883Z,6.50
2023-02-05T16:33:18.382Z,6.50
2023-02-05T16:35:47.392Z,6.50
2023-02-05T16:38:18.920Z,6.60
2023-02-05T16:40:51.842Z,6.50
2023-02-05T16:43:27.454Z,6.50
2023-02-05T16:46:06.525Z,6.40
2023-02-05T16:48:41.670Z,6.40
2023-02-05T16:51:35.647Z,6.40
2023-02-05T16:54:12.275Z,6.40
2023-02-05T16:56:47.268Z,6.40
2023-02-05T16:59:22.929Z,6.40
2023-02-05T17:01:50.155Z,6.30
2023-02-05T17:04:30.600Z,6.30
2023-02-05T17:06:58.995Z,6.30
2023-02-05T17:09:32.959Z,6.30
2023-02-05T17:12:23.876Z,6.20
2023-02-05T17:15:12.763Z,6.30
2023-02-05T17:17:52.096Z,6.20
2023-02-05T17:20:18.870Z,6.10
2023-02-05T17:23:00.999Z,6.10
2023-02-05T17:25:27.832Z,6.10
2023-02-05T17:27:55.300Z,6.10
2023-02-05T17:30:22.842Z,6.10
2023-02-05T17:37:21.682Z,6.10
2023-02-05T17:39:49.689Z,6.10
2023-02-05T17:42:24.375Z,6.10
2023-02-05T17:44:51.493Z,6.10
2023-02-05T17:47:18.618Z,6.00
2023-02-05T17:49:45.383Z,6.10
2023-02-05T17:52:12.152Z,6.10
2023-02-05T17:54:39.622Z,6.00
2023-02-05T17:57:17.630Z,6.00
2023-02-05T17:59:45.015Z,6.00
2023-02-05T18:05:35.166Z,6.00
2023-02-05T18:08:03.066Z,6.00
2023-02-05T18:10:33.451Z,6.10
2023-02-05T18:13:00.225Z,6.00
2023-02-05T18:15:27.609Z,6.10
2023-02-05T18:17:54.264Z,6.00
2023-02-05T18:20:21.225Z,6.00
2023-02-05T18:22:48.957Z,6.00
2023-02-05T18:25:15.774Z,6.10
2023-02-05T18:27:42.487Z,6.10
2023-02-05T18:30:09.731Z,6.00
2023-02-05T18:32:36.421Z,6.00
2023-02-05T18:35:03.145Z,6.00
2023-02-05T18:37:29.824Z,6.00
2023-02-05T18:39:56.678Z,6.00
2023-02-05T18:42:23.445Z,6.00
2023-02-05T18:44:50.192Z,6.00
2023-02-05T18:47:16.939Z,6.00
2023-02-05T18:49:43.834Z,6.00
2023-02-05T18:52:13.034Z,6.00
2023-02-05T18:54:39.987Z,6.00
2023-02-05T18:57:06.758Z,6.00
2023-02-05T18:59:33.536Z,6.00
2023-02-05T19:02:00.628Z,5.90
2023-02-05T19:04:27.886Z,5.90
2023-02-05T19:06:54.825Z,5.90
2023-02-05T19:09:22.594Z,5.90
2023-02-05T19:11:49.784Z,6.00
2023-02-05T19:14:17.466Z,6.00
2023-02-05T19:16:44.529Z,6.00
2023-02-05T19:19:13.395Z,6.00
2023-02-05T19:21:40.590Z,6.00
2023-02-05T19:24:09.680Z,6.00
2023-02-05T19:26:42.523Z,6.00
2023-02-05T19:29:13.111Z,6.00
2023-02-05T19:31:42.370Z,6.00
2023-02-05T19:34:12.825Z,6.00
2023-02-05T19:36:39.609Z,6.00
2023-02-05T19:39:07.298Z,6.00
2023-02-05T19:41:35.018Z,6.00
2023-02-05T19:44:03.997Z,6.00
2023-02-05T19:46:36.666Z,6.00
2023-02-05T19:49:14.556Z,6.00
2023-02-05T19:51:43.446Z,5.90
2023-02-05T19:54:10.142Z,5.90
2023-02-05T19:56:37.952Z,5.90
2023-02-05T19:59:05.603Z,5.90
2023-02-05T20:01:33.959Z,5.90
2023-02-05T20:04:08.932Z,5.90
2023-02-05T20:06:35.992Z,5.90
2023-02-05T20:09:03.595Z,5.90
2023-02-05T20:11:30.635Z,5.90
2023-02-05T20:14:01.014Z,5.80
2023-02-05T20:16:27.840Z,5.80
2023-02-05T20:18:56.358Z,5.80
2023-02-05T20:21:24.772Z,5.80
2023-02-05T20:23:51.436Z,5.80
2023-02-05T20:26:22.238Z,5.80
2023-02-05T20:29:11.210Z,5.80
2023-02-05T20:31:42.805Z,5.70
2023-02-05T20:34:22.785Z,5.60
2023-02-05T20:37:00.242Z,5.60
2023-02-05T20:39:30.751Z,5.60
2023-02-05T20:41:58.472Z,5.60
2023-02-05T20:44:26.571Z,5.60
2023-02-05T20:46:53.291Z,5.50
2023-02-05T20:49:20.116Z,5.50
2023-02-05T20:51:48.500Z,5.50
2023-02-05T20:54:15.217Z,5.50
2023-02-05T20:57:11.792Z,5.50
2023-02-05T20:59:38.606Z,5.50
2023-02-05T21:02:05.475Z,5.50
2023-02-05T21:04:33.875Z,5.50
2023-02-05T21:07:00.861Z,5.50
2023-02-05T21:09:30.691Z,5.50
2023-02-05T21:11:57.441Z,5.40
2023-02-05T21:14:25.887Z,5.40
2023-02-05T21:16:52.614Z,5.40
2023-02-05T21:19:19.374Z,5.40
2023-02-05T21:21:46.205Z,5.40
2023-02-05T21:24:14.420Z,5.40
2023-02-05T21:26:50.989Z,5.30
2023-02-05T21:29:22.267Z,5.30
2023-02-05T21:31:54.121Z,5.20
2023-02-05T21:34:21.848Z,5.30
2023-02-05T21:36:49.062Z,5.30
2023-02-05T21:39:21.980Z,5.30
2023-02-05T21:41:53.172Z,5.30
2023-02-05T21:44:19.954Z,5.30
2023-02-05T21:46:49.195Z,5.20
2023-02-05T21:49:17.388Z,5.30
2023-02-05T21:51:44.779Z,5.30
2023-02-05T21:54:11.614Z,5.20
2023-02-05T21:56:40.693Z,5.30
2023-02-05T21:59:07.566Z,5.30
2023-02-05T22:01:35.459Z,5.20
2023-02-05T22:04:04.016Z,5.20
2023-02-05T22:06:32.302Z,5.20
2023-02-05T22:08:59.206Z,5.20
2023-02-05T22:11:26.277Z,5.20
2023-02-05T22:13:53.743Z,5.10
2023-02-05T22:16:25.229Z,5.10
2023-02-05T22:18:52.388Z,5.10
2023-02-05T22:21:21.065Z,5.10
2023-02-05T22:23:49.141Z,5.10
2023-02-05T22:26:21.006Z,5.00
2023-02-05T22:28:48.023Z,5.00
2023-02-05T22:31:16.534Z,4.90
2023-02-05T22:33:44.422Z,4.90
2023-02-05T22:36:11.652Z,4.80
2023-02-05T22:38:38.951Z,4.80
2023-02-05T22:41:09.479Z,4.80
2023-02-05T22:43:36.281Z,4.80
2023-02-05T22:46:23.926Z,4.70
2023-02-05T22:48:53.023Z,4.70
2023-02-05T22:51:25.037Z,4.70
2023-02-05T22:53:55.013Z,4.70
2023-02-05T22:56:21.762Z,4.70
2023-02-05T22:58:48.635Z,4.70
2023-02-05T23:01:17.437Z,4.80
2023-02-05T23:03:45.621Z,4.80
2023-02-05T23:06:17.464Z,4.90
2023-02-05T23:08:44.626Z,4.90
2023-02-05T23:11:12.965Z,4.90
2023-02-05T23:13:40.407Z,4.90
2023-02-05T23:16:11.059Z,4.90
2023-02-05T23:18:38.255Z,5.00
2023-02-05T23:21:16.154Z,5.00
2023-02-05T23:23:43.050Z,5.00
2023-02-05T23:26:11.312Z,5.00
2023-02-05T23:28:38.076Z,5.00
2023-02-05T23:31:05.125Z,5.10
2023-02-05T23:33:31.935Z,5.10
2023-02-05T23:35:58.659Z,5.10
2023-02-05T23:38:25.418Z,5.10
2023-02-05T23:40:52.987Z,5.10
2023-02-05T23:43:19.851Z,5.10
2023-02-05T23:45:46.564Z,5.10
2023-02-05T23:48:13.278Z,5.10
2023-02-05T23:50:40.086Z,5.10
2023-02-05T23:53:06.752Z,5.20
2023-02-05T23:55:38.673Z,5.20
2023-02-05T23:58:06.395Z,5.20
